Time;durP1;ratioP1;P1;durP2;ratioP2;P2;SDS_P1;SDS_P2;PMS_P1;PMS_P2;Temp;Humidity;BMP_temperature;BMP_pressure;BME280_temperature;BME280_humidity;BME280_pressure;Samples;Min_cycle;Max_cycle;Signal;HPM_P1;HPM_P2
2022/09/06 00:00:15;;;;;;;7.70;3.50;;;;;;;;;;4973279;28;20047;-63
2022/09/06 00:02:42;;;;;;;9.55;3.80;;;;;;;;;;4979412;28;20045;-63
2022/09/06 00:05:09;;;;;;;7.80;3.40;;;;;;;;;;4983132;28;20464;-64
2022/09/06 00:07:34;;;;;;;9.15;3.60;;;;;;;;;;4983152;28;20080;-63
2022/09/06 00:10:00;;;;;;;6.63;3.47;;;;;;;;;;4984740;28;20035;-66
2022/09/06 00:12:26;;;;;;;7.20;3.25;;;;;;;;;;4972146;28;20369;-63
2022/09/06 00:14:52;;;;;;;6.75;3.40;;;;;;;;;;4979867;28;20054;-64
2022/09/06 00:17:18;;;;;;;7.80;3.45;;;;;;;;;;4975016;28;20034;-63
2022/09/06 00:19:43;;;;;;;8.23;3.30;;;;;;;;;;4989874;28;20030;-63
2022/09/06 00:22:09;;;;;;;7.47;3.30;;;;;;;;;;4972403;28;20424;-63
2022/09/06 00:24:36;;;;;;;7.35;3.30;;;;;;;;;;4974267;28;20468;-62
2022/09/06 00:27:02;;;;;;;5.30;3.60;;;;;;;;;;4989603;28;20027;-65
2022/09/06 00:29:27;;;;;;;6.40;3.28;;;;;;;;;;4989490;28;20081;-63
2022/09/06 00:31:53;;;;;;;9.82;3.17;;;;;;;;;;4991091;28;20058;-63
2022/09/06 00:34:18;;;;;;;6.50;3.22;;;;;;;;;;4977519;28;20023;-63
2022/09/06 00:36:44;;;;;;;9.00;3.28;;;;;;;;;;4986070;28;20027;-64
2022/09/06 00:39:09;;;;;;;7.05;3.40;;;;;;;;;;4970948;28;20555;-63
2022/09/06 00:41:34;;;;;;;5.68;3.10;;;;;;;;;;4976850;28;20500;-63
2022/09/06 00:44:00;;;;;;;5.40;3.13;;;;;;;;;;4989709;28;20455;-65
2022/09/06 00:46:29;;;;;;;6.60;3.17;;;;;;;;;;4985418;28;20030;-63
2022/09/06 00:49:02;;;;;;;5.95;3.55;;;;;;;;;;4985161;28;20049;-63
2022/09/06 00:51:29;;;;;;;5.30;3.22;;;;;;;;;;4987268;28;20046;-63
2022/09/06 00:53:55;;;;;;;9.52;3.40;;;;;;;;;;4992869;28;20034;-63
2022/09/06 00:56:21;;;;;;;7.60;3.28;;;;;;;;;;4988494;28;20418;-63
2022/09/06 00:58:47;;;;;;;7.05;3.45;;;;;;;;;;4989385;28;20026;-63
2022/09/06 01:01:13;;;;;;;6.78;3.17;;;;;;;;;;4994139;28;20033;-63
2022/09/06 01:03:38;;;;;;;5.57;3.30;;;;;;;;;;4988240;28;20038;-62
2022/09/06 01:06:16;;;;;;;6.75;3.10;;;;;;;;;;4985108;28;20026;-66
2022/09/06 01:08:58;;;;;;;8.52;3.50;;;;;;;;;;4986964;28;20038;-63
2022/09/06 01:12:04;;;;;;;6.57;3.30;;;;;;;;;;4982997;28;20164;-63
2022/09/06 01:14:45;;;;;;;9.90;3.28;;;;;;;;;;4961447;28;20377;-64
2022/09/06 01:17:13;;;;;;;6.20;3.50;;;;;;;;;;4956247;28;20046;-63
2022/09/06 01:20:08;;;;;;;7.35;3.45;;;;;;;;;;4969470;28;20043;-63
2022/09/06 01:22:52;;;;;;;8.73;3.65;;;;;;;;;;4989838;28;20036;-63
2022/09/06 01:25:54;;;;;;;9.40;3.70;;;;;;;;;;4972567;28;20394;-63
2022/09/06 01:28:36;;;;;;;5.95;3.72;;;;;;;;;;4977258;28;20047;-63
2022/09/06 01:31:01;;;;;;;8.43;3.90;;;;;;;;;;4985308;28;20034;-63
2022/09/06 01:33:41;;;;;;;9.63;3.90;;;;;;;;;;4980483;28;20546;-63
2022/09/06 01:36:13;;;;;;;6.22;4.00;;;;;;;;;;4965135;28;20089;-63
2022/09/06 01:38:39;;;;;;;8.90;4.22;;;;;;;;;;4974435;28;20038;-63
2022/09/06 01:41:04;;;;;;;8.05;3.92;;;;;;;;;;4975003;28;20387;-65
2022/09/06 01:43:34;;;;;;;10.55;4.30;;;;;;;;;;4978862;28;20495;-64
2022/09/06 01:46:01;;;;;;;7.38;4.22;;;;;;;;;;4992823;28;20034;-64
2022/09/06 01:48:39;;;;;;;9.60;4.03;;;;;;;;;;4991150;28;20042;-64
2022/09/06 01:51:10;;;;;;;8.82;4.40;;;;;;;;;;4962470;28;20441;-66
2022/09/06 01:53:41;;;;;;;11.77;4.20;;;;;;;;;;4975597;28;20034;-63
2022/09/06 01:56:21;;;;;;;8.85;4.47;;;;;;;;;;4974817;28;20103;-66
2022/09/06 01:59:14;;;;;;;9.07;4.30;;;;;;;;;;4973372;28;20038;-63
2022/09/06 02:01:48;;;;;;;7.30;4.45;;;;;;;;;;4978848;28;20038;-63
2022/09/06 02:04:35;;;;;;;11.15;4.70;;;;;;;;;;4992432;28;20034;-63
2022/09/06 02:07:07;;;;;;;8.50;4.63;;;;;;;;;;4976963;28;20058;-63
2022/09/06 02:09:42;;;;;;;8.38;4.60;;;;;;;;;;4993127;28;20039;-64
2022/09/06 02:12:12;;;;;;;10.00;5.28;;;;;;;;;;4985120;28;20034;-66
2022/09/06 02:14:44;;;;;;;11.35;5.18;;;;;;;;;;4993340;28;20038;-64
2022/09/06 02:17:13;;;;;;;10.98;5.00;;;;;;;;;;4970910;28;20043;-66
2022/09/06 02:19:46;;;;;;;8.98;4.53;;;;;;;;;;4983543;28;20033;-63
2022/09/06 02:22:14;;;;;;;8.90;4.78;;;;;;;;;;4975714;28;20041;-64
2022/09/06 02:24:42;;;;;;;9.75;5.00;;;;;;;;;;4973859;28;20454;-63
2022/09/06 02:27:07;;;;;;;9.35;4.53;;;;;;;;;;4989401;28;20093;-66
2022/09/06 02:29:34;;;;;;;12.90;4.50;;;;;;;;;;4993361;28;20038;-63
2022/09/06 02:32:20;;;;;;;11.27;4.40;;;;;;;;;;4971409;28;20082;-63
2022/09/06 02:34:46;;;;;;;10.77;4.43;;;;;;;;;;4983109;28;20038;-63
2022/09/06 02:37:14;;;;;;;9.77;4.28;;;;;;;;;;4980601;28;20092;-64
2022/09/06 02:39:39;;;;;;;8.43;4.43;;;;;;;;;;4978327;28;20465;-64
2022/09/06 02:42:07;;;;;;;7.57;4.15;;;;;;;;;;4976081;28;20495;-63
2022/09/06 02:44:32;;;;;;;7.63;4.10;;;;;;;;;;4983017;28;20038;-63
2022/09/06 02:46:57;;;;;;;8.05;4.53;;;;;;;;;;4986165;28;20102;-63
2022/09/06 02:49:23;;;;;;;9.15;4.63;;;;;;;;;;4983811;28;20043;-63
2022/09/06 02:51:49;;;;;;;7.75;4.50;;;;;;;;;;4992599;28;20031;-63
2022/09/06 02:54:15;;;;;;;8.65;4.70;;;;;;;;;;4980620;28;20027;-64
2022/09/06 02:56:40;;;;;;;8.07;4.47;;;;;;;;;;4967492;28;20039;-64
2022/09/06 02:59:06;;;;;;;8.50;4.38;;;;;;;;;;4973254;28;20065;-63
2022/09/06 03:01:32;;;;;;;9.63;4.55;;;;;;;;;;4986800;28;20112;-64
2022/09/06 03:03:57;;;;;;;8.30;4.60;;;;;;;;;;4981069;28;20027;-63
2022/09/06 03:06:23;;;;;;;6.85;4.65;;;;;;;;;;4979449;28;20039;-63
2022/09/06 03:08:48;;;;;;;6.68;4.78;;;;;;;;;;4981406;28;20042;-64
2022/09/06 03:11:13;;;;;;;9.45;4.82;;;;;;;;;;4976788;28;20045;-64
2022/09/06 03:13:39;;;;;;;8.60;5.20;;;;;;;;;;4972606;28;20042;-63
2022/09/06 03:16:04;;;;;;;10.05;5.13;;;;;;;;;;4977981;28;20534;-63
2022/09/06 03:18:30;;;;;;;9.43;4.82;;;;;;;;;;4987071;28;20040;-63
2022/09/06 03:20:56;;;;;;;9.52;5.30;;;;;;;;;;4983083;28;20109;-64
2022/09/06 03:23:24;;;;;;;10.45;5.30;;;;;;;;;;4992064;28;20116;-64
2022/09/06 03:25:50;;;;;;;7.70;5.30;;;;;;;;;;4982328;28;20583;-64
2022/09/06 03:28:17;;;;;;;7.35;5.22;;;;;;;;;;4984404;28;20121;-64
2022/09/06 03:30:47;;;;;;;8.25;4.80;;;;;;;;;;4978153;28;20027;-63
2022/09/06 03:33:13;;;;;;;8.63;5.43;;;;;;;;;;4985154;28;20030;-66
2022/09/06 03:35:40;;;;;;;7.68;4.70;;;;;;;;;;4982975;28;20046;-65
2022/09/06 03:38:06;;;;;;;9.23;4.97;;;;;;;;;;4987643;28;20049;-63
2022/09/06 03:40:31;;;;;;;8.00;5.25;;;;;;;;;;4983684;28;20030;-63
2022/09/06 03:42:57;;;;;;;10.20;5.07;;;;;;;;;;4965291;28;20433;-63
2022/09/06 03:45:22;;;;;;;14.15;5.30;;;;;;;;;;4965289;28;20458;-63
2022/09/06 03:47:47;;;;;;;6.65;4.72;;;;;;;;;;4973234;28;20035;-63
2022/09/06 03:50:13;;;;;;;11.23;5.07;;;;;;;;;;4976664;28;20112;-65
2022/09/06 03:52:39;;;;;;;7.07;4.80;;;;;;;;;;4992361;28;20022;-63
2022/09/06 03:55:05;;;;;;;8.90;4.80;;;;;;;;;;4982588;28;20027;-63
2022/09/06 03:57:31;;;;;;;11.02;4.65;;;;;;;;;;4972426;28;20114;-63
2022/09/06 03:59:56;;;;;;;7.60;4.43;;;;;;;;;;4980017;28;20478;-65
2022/09/06 04:02:22;;;;;;;12.45;5.10;;;;;;;;;;4992125;28;20478;-61
2022/09/06 04:04:47;;;;;;;8.48;4.90;;;;;;;;;;4977698;28;20077;-62
2022/09/06 04:07:12;;;;;;;7.82;4.50;;;;;;;;;;4987820;28;20391;-62
2022/09/06 04:09:38;;;;;;;18.45;6.88;;;;;;;;;;4979631;28;20069;-61
2022/09/06 04:12:03;;;;;;;14.13;7.38;;;;;;;;;;4990021;28;20104;-61
2022/09/06 04:14:29;;;;;;;16.33;8.18;;;;;;;;;;4973963;28;20439;-62
2022/09/06 04:16:54;;;;;;;17.15;8.27;;;;;;;;;;4989311;28;20117;-62
2022/09/06 04:19:20;;;;;;;16.55;8.70;;;;;;;;;;4980327;28;20046;-61
2022/09/06 04:21:45;;;;;;;13.55;9.00;;;;;;;;;;4986801;28;20037;-61
2022/09/06 04:24:11;;;;;;;12.73;9.57;;;;;;;;;;4971978;28;20035;-61
2022/09/06 04:26:37;;;;;;;16.27;10.50;;;;;;;;;;4983711;28;20049;-60
2022/09/06 04:29:02;;;;;;;16.08;10.88;;;;;;;;;;4971663;28;20039;-61
2022/09/06 04:31:28;;;;;;;15.63;11.38;;;;;;;;;;4970263;28;20109;-62
2022/09/06 04:33:53;;;;;;;18.73;10.05;;;;;;;;;;4985417;28;20065;-60
2022/09/06 04:36:19;;;;;;;17.73;11.07;;;;;;;;;;4974047;28;20104;-60
2022/09/06 04:38:44;;;;;;;18.25;10.32;;;;;;;;;;4984922;28;20109;-61
2022/09/06 04:41:13;;;;;;;17.83;11.52;;;;;;;;;;4977375;28;20027;-61
2022/09/06 04:43:38;;;;;;;20.23;11.98;;;;;;;;;;4984705;28;20101;-60
2022/09/06 04:46:05;;;;;;;19.77;11.75;;;;;;;;;;4975123;28;20039;-61
2022/09/06 04:48:30;;;;;;;20.63;12.75;;;;;;;;;;4976796;28;20047;-61
2022/09/06 04:50:55;;;;;;;16.23;12.75;;;;;;;;;;4971510;28;20038;-60
2022/09/06 04:53:21;;;;;;;18.88;13.13;;;;;;;;;;4984787;28;20038;-60
2022/09/06 04:55:46;;;;;;;17.33;13.15;;;;;;;;;;4980059;28;20419;-60
2022/09/06 04:58:12;;;;;;;21.13;13.55;;;;;;;;;;4988626;28;20052;-62
2022/09/06 05:00:38;;;;;;;19.55;13.10;;;;;;;;;;4975386;28;20078;-62
2022/09/06 05:03:03;;;;;;;19.20;13.35;;;;;;;;;;4979240;28;20042;-62
2022/09/06 05:05:29;;;;;;;19.83;13.88;;;;;;;;;;4971008;28;20476;-63
2022/09/06 05:07:55;;;;;;;20.35;13.52;;;;;;;;;;4981346;28;20034;-62
2022/09/06 05:10:22;;;;;;;23.85;14.48;;;;;;;;;;4975194;28;20464;-60
2022/09/06 05:12:52;;;;;;;20.02;12.93;;;;;;;;;;4983312;28;20037;-61
2022/09/06 05:15:18;;;;;;;21.52;12.90;;;;;;;;;;4991879;28;20518;-60
2022/09/06 05:17:43;;;;;;;21.80;12.50;;;;;;;;;;4969834;28;20046;-61
2022/09/06 05:20:10;;;;;;;18.02;12.85;;;;;;;;;;4971526;28;20039;-62
2022/09/06 05:22:36;;;;;;;20.60;12.45;;;;;;;;;;4970115;28;20395;-62
2022/09/06 05:25:01;;;;;;;22.10;12.85;;;;;;;;;;4970371;28;20031;-62
2022/09/06 05:27:27;;;;;;;20.52;12.57;;;;;;;;;;4969615;28;20058;-68
2022/09/06 05:29:52;;;;;;;18.67;11.52;;;;;;;;;;4967855;28;20089;-63
2022/09/06 05:32:17;;;;;;;18.13;12.40;;;;;;;;;;4972104;28;20477;-63
2022/09/06 05:34:43;;;;;;;22.10;12.07;;;;;;;;;;4983578;28;20031;-62
2022/09/06 05:37:08;;;;;;;17.48;12.00;;;;;;;;;;4974173;28;20053;-63
2022/09/06 05:39:33;;;;;;;20.88;11.32;;;;;;;;;;4973492;28;20031;-62
2022/09/06 05:41:59;;;;;;;15.80;10.73;;;;;;;;;;4967913;28;20387;-63
2022/09/06 05:44:24;;;;;;;18.92;11.35;;;;;;;;;;4977937;28;20031;-63
2022/09/06 05:46:50;;;;;;;20.65;11.90;;;;;;;;;;4975625;28;20031;-64
2022/09/06 05:49:15;;;;;;;18.05;11.27;;;;;;;;;;4975091;28;20089;-63
2022/09/06 05:51:41;;;;;;;14.55;10.85;;;;;;;;;;4974509;28;20023;-63
2022/09/06 05:54:06;;;;;;;14.18;9.93;;;;;;;;;;4974099;28;20066;-63
2022/09/06 05:56:32;;;;;;;24.75;9.65;;;;;;;;;;4974794;28;20027;-63
2022/09/06 05:58:58;;;;;;;17.00;9.15;;;;;;;;;;4973777;28;20058;-63
2022/09/06 06:01:28;;;;;;;16.10;9.50;;;;;;;;;;4974629;28;20039;-63
2022/09/06 06:03:55;;;;;;;11.63;8.27;;;;;;;;;;4973519;28;20030;-63
2022/09/06 06:06:22;;;;;;;16.80;7.82;;;;;;;;;;4972875;28;20093;-63
2022/09/06 06:08:48;;;;;;;16.13;8.52;;;;;;;;;;4973766;28;20042;-63
2022/09/06 06:11:14;;;;;;;10.98;8.30;;;;;;;;;;4970735;28;20049;-63
2022/09/06 06:13:40;;;;;;;13.82;8.38;;;;;;;;;;4972910;28;20034;-62
2022/09/06 06:16:07;;;;;;;15.60;8.30;;;;;;;;;;4973418;28;20035;-63
2022/09/06 06:18:32;;;;;;;15.48;8.63;;;;;;;;;;4970097;28;20387;-65
2022/09/06 06:21:15;;;;;;;13.13;9.30;;;;;;;;;;4973772;28;20031;-64
2022/09/06 06:23:43;;;;;;;14.95;9.52;;;;;;;;;;4964994;28;20062;-64
2022/09/06 06:26:10;;;;;;;14.70;10.05;;;;;;;;;;4973964;28;20109;-63
2022/09/06 06:28:36;;;;;;;19.70;10.23;;;;;;;;;;4968173;28;20031;-64
2022/09/06 06:31:03;;;;;;;19.65;10.32;;;;;;;;;;4971669;28;20434;-64
2022/09/06 06:33:28;;;;;;;14.65;10.98;;;;;;;;;;4968195;28;20035;-65
2022/09/06 06:36:03;;;;;;;19.90;12.10;;;;;;;;;;4969533;28;20031;-65
2022/09/06 06:38:37;;;;;;;18.58;12.52;;;;;;;;;;4973621;28;20062;-65
2022/09/06 06:41:04;;;;;;;22.17;11.45;;;;;;;;;;4973051;28;20027;-65
2022/09/06 06:43:35;;;;;;;18.30;12.73;;;;;;;;;;4970577;28;20480;-68
2022/09/06 06:46:04;;;;;;;16.75;11.68;;;;;;;;;;4970827;28;20030;-66
2022/09/06 06:48:30;;;;;;;17.52;11.60;;;;;;;;;;4973030;28;20043;-64
2022/09/06 06:50:55;;;;;;;15.55;10.88;;;;;;;;;;4972821;28;20031;-64
2022/09/06 06:53:20;;;;;;;17.45;11.77;;;;;;;;;;4973589;28;20085;-63
2022/09/06 06:55:49;;;;;;;19.35;12.43;;;;;;;;;;4972388;28;20034;-62
2022/09/06 06:58:15;;;;;;;15.70;11.90;;;;;;;;;;4960859;28;20034;-64
2022/09/06 07:00:41;;;;;;;17.98;11.93;;;;;;;;;;4967121;28;20039;-64
2022/09/06 07:03:07;;;;;;;21.75;11.52;;;;;;;;;;4973713;28;20361;-64
2022/09/06 07:05:33;;;;;;;14.82;11.18;;;;;;;;;;4971759;28;20464;-64
2022/09/06 07:07:58;;;;;;;15.05;10.68;;;;;;;;;;4974079;28;20042;-65
2022/09/06 07:10:24;;;;;;;16.20;10.60;;;;;;;;;;4974976;28;20043;-64
2022/09/06 07:12:50;;;;;;;14.80;10.45;;;;;;;;;;4973760;28;20050;-64
2022/09/06 07:15:16;;;;;;;12.90;10.30;;;;;;;;;;4976098;28;20038;-63
2022/09/06 07:17:42;;;;;;;12.52;9.45;;;;;;;;;;4971463;28;20114;-63
2022/09/06 07:20:09;;;;;;;10.68;8.00;;;;;;;;;;4973404;28;20041;-63
2022/09/06 07:22:34;;;;;;;12.55;8.52;;;;;;;;;;4971613;28;20387;-62
2022/09/06 07:25:00;;;;;;;10.98;7.88;;;;;;;;;;4971440;28;20046;-62
2022/09/06 07:27:25;;;;;;;12.52;7.32;;;;;;;;;;4972995;28;20030;-64
2022/09/06 07:29:50;;;;;;;13.23;7.68;;;;;;;;;;4973536;28;20460;-63
2022/09/06 07:32:16;;;;;;;13.02;7.60;;;;;;;;;;4972296;28;20539;-63
2022/09/06 07:34:41;;;;;;;12.82;7.35;;;;;;;;;;4972466;28;20023;-65
2022/09/06 07:37:07;;;;;;;10.80;7.70;;;;;;;;;;4972607;28;20471;-63
2022/09/06 07:39:32;;;;;;;9.57;7.50;;;;;;;;;;4971972;28;20031;-64
2022/09/06 07:41:58;;;;;;;12.00;7.75;;;;;;;;;;4970307;28;20034;-63
2022/09/06 07:44:23;;;;;;;12.93;7.70;;;;;;;;;;4971214;28;20081;-65
2022/09/06 07:46:50;;;;;;;10.48;6.53;;;;;;;;;;4971100;28;20085;-63
2022/09/06 07:49:16;;;;;;;18.27;8.25;;;;;;;;;;4972717;28;20041;-59
2022/09/06 07:51:41;;;;;;;11.48;6.82;;;;;;;;;;4971108;28;20122;-59
2022/09/06 07:54:06;;;;;;;10.77;6.60;;;;;;;;;;4972890;28;20472;-59
2022/09/06 07:56:32;;;;;;;12.55;6.50;;;;;;;;;;4972694;28;20043;-59
2022/09/06 07:58:57;;;;;;;10.77;6.47;;;;;;;;;;4972659;28;20481;-59
2022/09/06 08:01:28;;;;;;;9.32;6.00;;;;;;;;;;4970570;28;20035;-59
2022/09/06 08:04:01;;;;;;;13.90;5.93;;;;;;;;;;4972293;28;20114;-60
2022/09/06 08:06:30;;;;;;;12.18;6.07;;;;;;;;;;4969991;28;20085;-61
2022/09/06 08:08:56;;;;;;;9.90;5.80;;;;;;;;;;4972919;28;20045;-61
2022/09/06 08:11:23;;;;;;;9.80;4.40;;;;;;;;;;4971974;28;20035;-61
2022/09/06 08:13:51;;;;;;;7.57;4.07;;;;;;;;;;4972454;28;20027;-62
2022/09/06 08:16:17;;;;;;;10.88;4.35;;;;;;;;;;4968778;28;20391;-60
2022/09/06 08:18:43;;;;;;;8.40;3.97;;;;;;;;;;4971103;28;20488;-61
2022/09/06 08:21:13;;;;;;;9.65;4.15;;;;;;;;;;4970934;28;20038;-61
2022/09/06 08:23:43;;;;;;;7.53;3.95;;;;;;;;;;4971745;28;20434;-64
2022/09/06 08:26:09;;;;;;;6.80;4.03;;;;;;;;;;4971579;28;20039;-64
2022/09/06 08:28:34;;;;;;;4.95;3.35;;;;;;;;;;4970748;28;20431;-63
2022/09/06 08:31:06;;;;;;;7.35;3.45;;;;;;;;;;4971433;28;20054;-63
2022/09/06 08:33:31;;;;;;;10.98;3.88;;;;;;;;;;4969456;28;20035;-62
2022/09/06 08:35:57;;;;;;;4.43;2.85;;;;;;;;;;4970378;28;20038;-61
2022/09/06 08:38:23;;;;;;;4.70;2.70;;;;;;;;;;4970624;28;20428;-62
2022/09/06 08:40:50;;;;;;;3.40;2.03;;;;;;;;;;4971663;28;20539;-61
2022/09/06 08:43:18;;;;;;;3.78;1.80;;;;;;;;;;4971207;28;20054;-61
2022/09/06 08:45:48;;;;;;;3.78;2.17;;;;;;;;;;4971699;28;20499;-61
2022/09/06 08:48:13;;;;;;;3.28;1.80;;;;;;;;;;4972091;28;20043;-61
2022/09/06 08:50:44;;;;;;;3.78;1.90;;;;;;;;;;4969790;28;20049;-65
2022/09/06 08:53:18;;;;;;;4.57;1.90;;;;;;;;;;4971840;28;20050;-66
2022/09/06 08:55:51;;;;;;;4.18;1.70;;;;;;;;;;4969076;28;20846;-60
2022/09/06 08:58:28;;;;;;;5.22;2.03;;;;;;;;;;4972646;28;20034;-61
2022/09/06 09:01:01;;;;;;;5.20;1.92;;;;;;;;;;4971676;28;20484;-61
2022/09/06 09:03:36;;;;;;;2.95;1.70;;;;;;;;;;4969135;28;20050;-61
2022/09/06 09:06:04;;;;;;;3.75;1.92;;;;;;;;;;4973308;28;20452;-61
2022/09/06 09:09:07;;;;;;;4.03;1.90;;;;;;;;;;4971344;28;20511;-61
2022/09/06 09:11:34;;;;;;;4.22;1.63;;;;;;;;;;4953390;29;20494;-62
2022/09/06 09:14:11;;;;;;;4.55;1.90;;;;;;;;;;4971364;28;20046;-62
2022/09/06 09:16:36;;;;;;;4.65;1.88;;;;;;;;;;4975142;28;20202;-62
2022/09/06 09:19:04;;;;;;;4.88;1.80;;;;;;;;;;4975042;28;20479;-65
2022/09/06 09:21:36;;;;;;;4.03;1.70;;;;;;;;;;4974722;28;20066;-62
2022/09/06 09:24:08;;;;;;;4.00;1.90;;;;;;;;;;4971873;28;20062;-63
2022/09/06 09:27:01;;;;;;;5.38;1.60;;;;;;;;;;4972376;28;20033;-63
2022/09/06 09:29:26;;;;;;;4.55;1.95;;;;;;;;;;4975140;28;20047;-62
2022/09/06 09:31:53;;;;;;;5.32;1.90;;;;;;;;;;4973835;28;20027;-62
2022/09/06 09:34:39;;;;;;;3.97;1.90;;;;;;;;;;4973602;28;20035;-63
2022/09/06 09:37:21;;;;;;;3.25;1.88;;;;;;;;;;4973870;28;20114;-63
2022/09/06 09:39:48;;;;;;;4.30;2.00;;;;;;;;;;4963834;28;20034;-63
2022/09/06 09:42:30;;;;;;;5.10;1.88;;;;;;;;;;4975840;28;20107;-62
2022/09/06 09:44:56;;;;;;;12.45;2.03;;;;;;;;;;4974262;28;20031;-65
2022/09/06 09:47:30;;;;;;;3.38;1.70;;;;;;;;;;4974724;28;20041;-62
2022/09/06 09:49:57;;;;;;;5.30;1.58;;;;;;;;;;4975177;28;20069;-62
2022/09/06 09:52:30;;;;;;;4.07;1.50;;;;;;;;;;4974176;28;20027;-63
2022/09/06 09:54:59;;;;;;;5.05;1.63;;;;;;;;;;4971226;28;20041;-63
2022/09/06 09:57:25;;;;;;;2.42;1.50;;;;;;;;;;4975182;28;20030;-64
2022/09/06 09:59:54;;;;;;;5.90;1.60;;;;;;;;;;4970439;28;20398;-64
2022/09/06 10:02:34;;;;;;;4.10;1.58;;;;;;;;;;4966232;28;20371;-64
2022/09/06 10:05:03;;;;;;;4.88;1.50;;;;;;;;;;4974009;28;20048;-64
2022/09/06 10:07:31;;;;;;;1.88;1.40;;;;;;;;;;4973369;28;20133;-61
2022/09/06 10:10:09;;;;;;;3.20;1.50;;;;;;;;;;4974746;28;20456;-65
2022/09/06 10:12:40;;;;;;;2.10;1.50;;;;;;;;;;4972744;28;20391;-65
2022/09/06 10:15:08;;;;;;;2.55;1.45;;;;;;;;;;4969462;28;20031;-63
2022/09/06 10:17:47;;;;;;;6.35;2.08;;;;;;;;;;4973610;28;20472;-64
2022/09/06 10:20:13;;;;;;;4.73;1.57;;;;;;;;;;4975885;28;20089;-65
2022/09/06 10:22:58;;;;;;;5.95;1.60;;;;;;;;;;4974039;28;20288;-65
2022/09/06 10:25:34;;;;;;;2.35;1.50;;;;;;;;;;4972847;28;20034;-65
2022/09/06 10:28:28;;;;;;;2.88;1.60;;;;;;;;;;4973445;28;20027;-64
2022/09/06 10:31:11;;;;;;;3.83;1.58;;;;;;;;;;4965131;28;20130;-63
2022/09/06 10:33:54;;;;;;;3.17;1.42;;;;;;;;;;4973565;28;20085;-63
2022/09/06 10:36:28;;;;;;;4.53;1.50;;;;;;;;;;4974773;28;20081;-63
2022/09/06 10:39:05;;;;;;;4.28;1.70;;;;;;;;;;4971747;28;20031;-62
2022/09/06 10:41:32;;;;;;;2.95;1.50;;;;;;;;;;4953504;29;20117;-63
2022/09/06 10:44:09;;;;;;;4.47;1.58;;;;;;;;;;4971408;28;20039;-63
2022/09/06 10:46:35;;;;;;;3.30;1.50;;;;;;;;;;4973420;28;20108;-63
2022/09/06 10:49:01;;;;;;;3.60;1.50;;;;;;;;;;4972868;28;20497;-62
2022/09/06 10:51:44;;;;;;;4.15;1.40;;;;;;;;;;4972834;28;20038;-64
2022/09/06 10:54:11;;;;;;;3.15;1.40;;;;;;;;;;4973692;28;20058;-64
2022/09/06 10:56:51;;;;;;;3.40;1.60;;;;;;;;;;4975280;28;20045;-63
2022/09/06 10:59:50;;;;;;;2.63;1.40;;;;;;;;;;4988459;28;20050;-64
2022/09/06 11:02:32;;;;;;;3.28;1.40;;;;;;;;;;4982244;28;20038;-63
2022/09/06 11:05:05;;;;;;;2.92;1.40;;;;;;;;;;4983654;28;20106;-64
2022/09/06 11:07:36;;;;;;;2.10;1.40;;;;;;;;;;4990921;28;20168;-64
2022/09/06 11:10:14;;;;;;;4.90;1.30;;;;;;;;;;4984963;28;20487;-64
2022/09/06 11:12:56;;;;;;;2.13;1.42;;;;;;;;;;4981938;28;20034;-62
2022/09/06 11:15:24;;;;;;;2.28;1.40;;;;;;;;;;4980898;28;20031;-62
2022/09/06 11:17:56;;;;;;;6.85;1.67;;;;;;;;;;4983856;28;20045;-63
2022/09/06 11:20:26;;;;;;;3.28;1.50;;;;;;;;;;4978807;28;20058;-64
2022/09/06 11:23:03;;;;;;;4.45;1.50;;;;;;;;;;4987459;28;20226;-64
2022/09/06 11:25:58;;;;;;;3.55;1.50;;;;;;;;;;4986088;28;20057;-64
2022/09/06 11:28:41;;;;;;;3.35;1.48;;;;;;;;;;4982756;28;20094;-61
2022/09/06 11:31:10;;;;;;;3.97;1.50;;;;;;;;;;4972510;28;20039;-64
2022/09/06 11:33:38;;;;;;;4.05;1.58;;;;;;;;;;4971669;28;20062;-62
2022/09/06 11:36:33;;;;;;;1.92;1.40;;;;;;;;;;4972738;28;20031;-63
2022/09/06 11:39:01;;;;;;;2.05;1.40;;;;;;;;;;4967604;28;20042;-64
2022/09/06 11:41:48;;;;;;;3.33;1.80;;;;;;;;;;4972086;28;20117;-64
2022/09/06 11:44:48;;;;;;;3.03;1.65;;;;;;;;;;4972440;28;20047;-66
2022/09/06 11:47:50;;;;;;;3.20;1.60;;;;;;;;;;4972701;28;20121;-64
2022/09/06 11:50:27;;;;;;;4.70;1.63;;;;;;;;;;4950958;28;20031;-63
2022/09/06 11:53:05;;;;;;;3.28;1.50;;;;;;;;;;4969663;28;20061;-63
2022/09/06 11:55:35;;;;;;;2.00;1.60;;;;;;;;;;4971222;28;20058;-63
2022/09/06 11:58:04;;;;;;;3.28;1.60;;;;;;;;;;4973143;28;20045;-63
2022/09/06 12:00:31;;;;;;;2.87;1.53;;;;;;;;;;4970075;28;20128;-63
2022/09/06 12:02:57;;;;;;;4.28;1.77;;;;;;;;;;4972838;28;20481;-63
2022/09/06 12:05:25;;;;;;;2.95;1.60;;;;;;;;;;4972158;28;20054;-63
2022/09/06 12:08:09;;;;;;;3.22;1.40;;;;;;;;;;4970175;28;20631;-63
2022/09/06 12:10:51;;;;;;;2.58;1.50;;;;;;;;;;4970844;28;20031;-62
2022/09/06 12:13:44;;;;;;;4.57;1.50;;;;;;;;;;4970842;28;20035;-62
2022/09/06 12:16:10;;;;;;;1.95;1.45;;;;;;;;;;4972729;28;20039;-60
2022/09/06 12:18:41;;;;;;;6.75;1.60;;;;;;;;;;4971835;28;20506;-61
2022/09/06 12:21:07;;;;;;;3.90;1.70;;;;;;;;;;4972105;28;20039;-60
2022/09/06 12:23:35;;;;;;;2.33;1.65;;;;;;;;;;4971295;28;20094;-61
2022/09/06 12:26:03;;;;;;;3.40;1.63;;;;;;;;;;4970675;28;20039;-59
2022/09/06 12:28:37;;;;;;;3.10;1.60;;;;;;;;;;4988157;28;20453;-59
2022/09/06 12:31:33;;;;;;;2.53;1.70;;;;;;;;;;4978110;28;20026;-60
2022/09/06 12:34:06;;;;;;;4.22;1.52;;;;;;;;;;4977029;28;20125;-59
2022/09/06 12:36:32;;;;;;;6.25;1.70;;;;;;;;;;4986980;28;20066;-60
2022/09/06 12:39:02;;;;;;;2.78;1.73;;;;;;;;;;4971860;28;20046;-60
2022/09/06 12:41:37;;;;;;;3.70;1.70;;;;;;;;;;4986262;28;20043;-59
2022/09/06 12:44:04;;;;;;;5.60;1.88;;;;;;;;;;4976153;28;20035;-60
2022/09/06 12:46:31;;;;;;;2.88;1.73;;;;;;;;;;4979986;28;20035;-61
2022/09/06 12:49:06;;;;;;;2.45;1.50;;;;;;;;;;4990590;28;20042;-59
2022/09/06 12:51:32;;;;;;;4.72;1.80;;;;;;;;;;4981289;28;20038;-61
2022/09/06 12:54:00;;;;;;;4.10;1.77;;;;;;;;;;4991663;28;20043;-60
2022/09/06 12:56:28;;;;;;;4.55;1.63;;;;;;;;;;4976847;28;20035;-60
2022/09/06 12:59:13;;;;;;;5.95;2.03;;;;;;;;;;4973190;28;20046;-60
2022/09/06 13:01:41;;;;;;;3.47;1.70;;;;;;;;;;4989529;28;20045;-60
2022/09/06 13:04:32;;;;;;;5.82;1.63;;;;;;;;;;4970511;28;20038;-61
2022/09/06 13:06:59;;;;;;;3.25;1.70;;;;;;;;;;4946624;28;20122;-61
2022/09/06 13:09:26;;;;;;;2.30;1.65;;;;;;;;;;4970272;28;20070;-62
2022/09/06 13:11:55;;;;;;;2.20;1.70;;;;;;;;;;4973444;28;20043;-61
2022/09/06 13:14:26;;;;;;;4.53;1.70;;;;;;;;;;4975788;28;20077;-60
2022/09/06 13:16:56;;;;;;;6.00;1.90;;;;;;;;;;4973108;28;20130;-60
2022/09/06 13:19:38;;;;;;;2.70;1.83;;;;;;;;;;4975390;28;20030;-61
2022/09/06 13:22:06;;;;;;;4.38;2.10;;;;;;;;;;4977286;28;20054;-60
2022/09/06 13:24:34;;;;;;;4.95;2.00;;;;;;;;;;4992335;28;20034;-62
2022/09/06 13:27:20;;;;;;;3.85;1.90;;;;;;;;;;4974530;28;20031;-61
2022/09/06 13:29:57;;;;;;;4.45;1.90;;;;;;;;;;4989490;28;20502;-62
2022/09/06 13:32:23;;;;;;;6.25;2.08;;;;;;;;;;4982320;28;20491;-62
2022/09/06 13:34:55;;;;;;;3.15;2.00;;;;;;;;;;4991155;28;20062;-61
2022/09/06 13:37:25;;;;;;;2.97;1.90;;;;;;;;;;4977004;28;20041;-61
2022/09/06 13:39:51;;;;;;;6.00;1.98;;;;;;;;;;4986555;28;20022;-60
2022/09/06 13:42:45;;;;;;;6.60;2.10;;;;;;;;;;4990498;28;20069;-61
2022/09/06 13:45:25;;;;;;;4.57;2.00;;;;;;;;;;4968340;28;20150;-60
2022/09/06 13:47:50;;;;;;;4.85;2.00;;;;;;;;;;4983300;28;20105;-60
2022/09/06 13:50:15;;;;;;;5.53;1.90;;;;;;;;;;4991100;28;20121;-60
2022/09/06 13:52:41;;;;;;;4.68;2.10;;;;;;;;;;4977490;28;20026;-60
2022/09/06 13:55:07;;;;;;;4.03;2.10;;;;;;;;;;4976454;28;20034;-61
2022/09/06 13:57:32;;;;;;;7.47;2.50;;;;;;;;;;4988027;28;20382;-63
2022/09/06 13:59:58;;;;;;;4.43;2.00;;;;;;;;;;4974796;28;20151;-61
2022/09/06 14:02:23;;;;;;;5.00;2.30;;;;;;;;;;4989066;28;20037;-61
2022/09/06 14:04:49;;;;;;;4.57;2.10;;;;;;;;;;4981905;28;20278;-61
2022/09/06 14:07:15;;;;;;;6.90;2.00;;;;;;;;;;4979146;28;20097;-61
2022/09/06 14:09:40;;;;;;;6.30;2.20;;;;;;;;;;4982365;28;20113;-62
2022/09/06 14:12:06;;;;;;;3.75;2.03;;;;;;;;;;4988633;28;20076;-60
2022/09/06 14:14:33;;;;;;;4.35;2.30;;;;;;;;;;4972266;28;20038;-62
2022/09/06 14:16:58;;;;;;;5.50;2.10;;;;;;;;;;4973071;28;20054;-60
2022/09/06 14:19:24;;;;;;;4.75;2.10;;;;;;;;;;4974122;28;20173;-60
2022/09/06 14:21:50;;;;;;;4.30;2.00;;;;;;;;;;4972673;28;20278;-60
2022/09/06 14:24:15;;;;;;;5.40;2.30;;;;;;;;;;4973393;28;20093;-60
2022/09/06 14:26:40;;;;;;;5.97;2.17;;;;;;;;;;4970893;28;20113;-61
2022/09/06 14:29:07;;;;;;;4.25;2.00;;;;;;;;;;4975254;28;20109;-61
2022/09/06 14:31:32;;;;;;;6.30;2.50;;;;;;;;;;4977562;28;20038;-62
2022/09/06 14:33:58;;;;;;;9.07;2.20;;;;;;;;;;4988312;28;20430;-60
2022/09/06 14:36:26;;;;;;;4.05;2.33;;;;;;;;;;4979166;28;20038;-60
2022/09/06 14:38:52;;;;;;;3.15;2.00;;;;;;;;;;4980082;28;20161;-60
2022/09/06 14:41:18;;;;;;;4.63;2.05;;;;;;;;;;4973068;28;20475;-60
2022/09/06 14:43:48;;;;;;;8.18;2.10;;;;;;;;;;4991289;28;20046;-61
2022/09/06 14:46:16;;;;;;;4.68;2.00;;;;;;;;;;4975148;28;20401;-60
2022/09/06 14:48:42;;;;;;;6.53;2.20;;;;;;;;;;4972771;28;20054;-60
2022/09/06 14:51:22;;;;;;;5.35;2.00;;;;;;;;;;4972071;28;20046;-61